sensor_id;sensor_type;location;lat;lon;timestamp;pressure;altitude;pressure_sealevel;temperature;humidity
26539;BME280;14205;43.200;24.170;2023-06-19T00:02:17;118693.16;;;-137.44;100.00
26539;BME280;14205;43.200;24.170;2023-06-19T00:04:42;118693.16;;;-137.44;100.00
26539;BME280;14205;43.200;24.170;2023-06-19T00:07:08;118691.09;;;-137.44;100.00
26539;BME280;14205;43.200;24.170;2023-06-19T00:09:33;118691.09;;;-137.44;100.00
26539;BME280;14205;43.200;24.170;2023-06-19T00:11:59;118693.16;;;-137.44;100.00
26539;BME280;14205;43.200;24.170;2023-06-19T00:14:25;118693.16;;;-137.44;100.00
26539;BME280;14205;43.200;24.170;2023-06-19T00:16:50;118693.16;;;-137.44;100.00
26539;BME280;14205;43.200;24.170;2023-06-19T00:19:16;118693.16;;;-137.44;100.00
26539;BME280;14205;43.200;24.170;2023-06-19T00:21:42;118693.16;;;-137.44;100.00
26539;BME280;14205;43.200;24.170;2023-06-19T00:24:09;118691.09;;;-137.44;100.00
26539;BME280;14205;43.200;24.170;2023-06-19T00:26:34;118693.16;;;-137.44;100.00
26539;BME280;14205;43.200;24.170;2023-06-19T00:29:00;118429.53;;;-137.44;100.00
26539;BME280;14205;43.200;24.170;2023-06-19T00:31:25;118167.97;;;-137.44;100.00
26539;BME280;14205;43.200;24.170;2023-06-19T00:33:52;117383.44;;;-137.44;100.00
26539;BME280;14205;43.200;24.170;2023-06-19T00:36:18;116599.06;;;-137.44;100.00
26539;BME280;14205;43.200;24.170;2023-06-19T00:38:48;118167.97;;;-137.44;100.00
26539;BME280;14205;43.200;24.170;2023-06-19T00:41:15;117644.94;;;-137.44;100.00
26539;BME280;14205;43.200;24.170;2023-06-19T00:43:41;115030.81;;;-137.44;100.00
26539;BME280;14205;43.200;24.170;2023-06-19T00:46:06;114508.25;;;-137.44;100.00
26539;BME280;14205;43.200;24.170;2023-06-19T00:48:32;114246.97;;;-137.44;100.00
26539;BME280;14205;43.200;24.170;2023-06-19T00:50:59;113463.31;;;-137.44;100.00
26539;BME280;14205;43.200;24.170;2023-06-19T00:53:25;110591.31;;;-137.44;100.00
26539;BME280;14205;43.200;24.170;2023-06-19T00:55:51;113202.13;;;-137.44;100.00
26539;BME280;14205;43.200;24.170;2023-06-19T00:58:19;114508.25;;;-137.44;100.00
26539;BME280;14205;43.200;24.170;2023-06-19T01:00:45;114508.25;;;-137.44;100.00
26539;BME280;14205;43.200;24.170;2023-06-19T01:03:10;116860.50;;;-137.44;100.00
26539;BME280;14205;43.200;24.170;2023-06-19T01:05:36;116860.50;;;-137.44;100.00
26539;BME280;14205;43.200;24.170;2023-06-19T01:10:43;118693.16;;;-137.44;100.00
26539;BME280;14205;43.200;24.170;2023-06-19T01:13:24;118693.16;;;-137.44;100.00
26539;BME280;14205;43.200;24.170;2023-06-19T01:15:52;118693.16;;;-137.44;100.00
26539;BME280;14205;43.200;24.170;2023-06-19T01:18:19;118693.16;;;-137.44;100.00
26539;BME280;14205;43.200;24.170;2023-06-19T01:20:45;118693.16;;;-137.44;100.00
26539;BME280;14205;43.200;24.170;2023-06-19T01:23:11;118693.16;;;-137.44;100.00
26539;BME280;14205;43.200;24.170;2023-06-19T01:25:37;118693.16;;;-137.44;100.00
26539;BME280;14205;43.200;24.170;2023-06-19T01:28:04;118693.16;;;-137.44;100.00
26539;BME280;14205;43.200;24.170;2023-06-19T01:30:31;118693.16;;;-137.44;100.00
26539;BME280;14205;43.200;24.170;2023-06-19T01:33:00;118693.16;;;-137.44;100.00
26539;BME280;14205;43.200;24.170;2023-06-19T01:35:32;118693.16;;;-137.44;100.00
26539;BME280;14205;43.200;24.170;2023-06-19T01:37:59;118693.16;;;-137.44;100.00
26539;BME280;14205;43.200;24.170;2023-06-19T01:40:25;118693.16;;;-137.44;100.00
26539;BME280;14205;43.200;24.170;2023-06-19T01:42:53;118693.16;;;-137.44;100.00
26539;BME280;14205;43.200;24.170;2023-06-19T01:45:20;118693.16;;;-137.44;100.00
26539;BME280;14205;43.200;24.170;2023-06-19T01:47:45;118693.16;;;-137.44;100.00
26539;BME280;14205;43.200;24.170;2023-06-19T01:50:11;118693.16;;;-137.44;100.00
26539;BME280;14205;43.200;24.170;2023-06-19T01:52:40;118693.16;;;-137.44;100.00
26539;BME280;14205;43.200;24.170;2023-06-19T01:55:06;118693.16;;;-137.44;100.00
26539;BME280;14205;43.200;24.170;2023-06-19T01:57:32;118693.16;;;-137.44;100.00
26539;BME280;14205;43.200;24.170;2023-06-19T01:59:57;118693.16;;;-137.44;100.00
26539;BME280;14205;43.200;24.170;2023-06-19T02:02:23;118693.16;;;-137.44;100.00
26539;BME280;14205;43.200;24.170;2023-06-19T02:04:49;118693.16;;;-137.44;100.00
26539;BME280;14205;43.200;24.170;2023-06-19T02:07:14;118693.16;;;-137.44;100.00
26539;BME280;14205;43.200;24.170;2023-06-19T02:09:40;118693.16;;;-137.44;100.00
26539;BME280;14205;43.200;24.170;2023-06-19T02:12:07;118693.16;;;-137.44;100.00
26539;BME280;14205;43.200;24.170;2023-06-19T02:14:32;118693.16;;;-137.44;100.00
26539;BME280;14205;43.200;24.170;2023-06-19T02:16:58;118693.16;;;-137.44;100.00
26539;BME280;14205;43.200;24.170;2023-06-19T02:19:23;118693.16;;;-137.44;100.00
26539;BME280;14205;43.200;24.170;2023-06-19T02:21:48;118693.16;;;-137.44;100.00
26539;BME280;14205;43.200;24.170;2023-06-19T02:24:14;118693.16;;;-137.44;100.00
26539;BME280;14205;43.200;24.170;2023-06-19T02:26:39;118693.16;;;-137.44;100.00
26539;BME280;14205;43.200;24.170;2023-06-19T02:29:05;118693.16;;;-137.44;100.00
26539;BME280;14205;43.200;24.170;2023-06-19T02:31:30;118693.16;;;-137.44;100.00
26539;BME280;14205;43.200;24.170;2023-06-19T02:33:56;118693.16;;;-137.44;100.00
26539;BME280;14205;43.200;24.170;2023-06-19T02:36:21;118693.16;;;-137.44;100.00
26539;BME280;14205;43.200;24.170;2023-06-19T02:38:47;118693.16;;;-137.44;100.00
26539;BME280;14205;43.200;24.170;2023-06-19T02:41:13;118693.16;;;-137.44;100.00
26539;BME280;14205;43.200;24.170;2023-06-19T02:43:43;118693.16;;;-137.44;100.00
26539;BME280;14205;43.200;24.170;2023-06-19T02:46:09;118693.16;;;-137.44;100.00
26539;BME280;14205;43.200;24.170;2023-06-19T02:48:35;118693.16;;;-137.44;100.00
26539;BME280;14205;43.200;24.170;2023-06-19T02:51:00;118693.16;;;-137.44;100.00
26539;BME280;14205;43.200;24.170;2023-06-19T02:53:26;118693.16;;;-137.44;100.00
26539;BME280;14205;43.200;24.170;2023-06-19T02:55:51;118693.16;;;-137.44;100.00
26539;BME280;14205;43.200;24.170;2023-06-19T02:58:17;118693.16;;;-137.44;100.00
26539;BME280;14205;43.200;24.170;2023-06-19T03:00:42;118693.16;;;-137.44;100.00
26539;BME280;14205;43.200;24.170;2023-06-19T03:03:08;118693.16;;;-137.44;100.00
26539;BME280;14205;43.200;24.170;2023-06-19T03:05:33;118693.16;;;-137.44;100.00
26539;BME280;14205;43.200;24.170;2023-06-19T03:07:59;118693.16;;;-137.44;100.00
26539;BME280;14205;43.200;24.170;2023-06-19T03:10:24;118693.16;;;-137.44;100.00
26539;BME280;14205;43.200;24.170;2023-06-19T03:12:50;118693.16;;;-137.44;100.00
26539;BME280;14205;43.200;24.170;2023-06-19T03:15:15;118693.16;;;-137.44;100.00
26539;BME280;14205;43.200;24.170;2023-06-19T03:17:41;118693.16;;;-137.44;100.00
26539;BME280;14205;43.200;24.170;2023-06-19T03:20:07;118693.16;;;-137.44;100.00
26539;BME280;14205;43.200;24.170;2023-06-19T03:22:34;118693.16;;;-137.44;100.00
26539;BME280;14205;43.200;24.170;2023-06-19T03:25:01;118693.16;;;-137.44;100.00
26539;BME280;14205;43.200;24.170;2023-06-19T03:27:26;118693.16;;;-137.44;100.00
26539;BME280;14205;43.200;24.170;2023-06-19T03:29:53;118693.16;;;-137.44;100.00
26539;BME280;14205;43.200;24.170;2023-06-19T03:32:18;118693.16;;;-137.44;100.00
26539;BME280;14205;43.200;24.170;2023-06-19T03:34:45;118693.16;;;-137.44;100.00
26539;BME280;14205;43.200;24.170;2023-06-19T03:37:11;118693.16;;;-137.44;100.00
26539;BME280;14205;43.200;24.170;2023-06-19T03:39:37;118693.16;;;-137.44;100.00
26539;BME280;14205;43.200;24.170;2023-06-19T03:42:03;118693.16;;;-137.44;100.00
26539;BME280;14205;43.200;24.170;2023-06-19T03:44:28;118693.16;;;-137.44;100.00
26539;BME280;14205;43.200;24.170;2023-06-19T03:46:54;118693.16;;;-137.44;100.00
26539;BME280;14205;43.200;24.170;2023-06-19T03:49:19;118693.16;;;-137.44;100.00
26539;BME280;14205;43.200;24.170;2023-06-19T03:51:45;116889.09;;;-137.44;100.00
26539;BME280;14205;43.200;24.170;2023-06-19T03:54:10;111378.44;;;-137.44;100.00
26539;BME280;14205;43.200;24.170;2023-06-19T03:56:36;101212.66;;;-137.44;100.00
26539;BME280;14205;43.200;24.170;2023-06-19T03:59:01;118693.16;;;-137.44;100.00
26539;BME280;14205;43.200;24.170;2023-06-19T04:01:26;118693.16;;;-137.44;100.00
26539;BME280;14205;43.200;24.170;2023-06-19T04:03:52;118693.16;;;-137.44;100.00
26539;BME280;14205;43.200;24.170;2023-06-19T04:06:17;118693.16;;;-137.44;100.00
26539;BME280;14205;43.200;24.170;2023-06-19T04:08:43;118693.16;;;-137.44;100.00
26539;BME280;14205;43.200;24.170;2023-06-19T04:11:08;118693.16;;;-137.44;100.00
26539;BME280;14205;43.200;24.170;2023-06-19T04:13:34;118693.16;;;-137.44;100.00
26539;BME280;14205;43.200;24.170;2023-06-19T04:15:59;118693.16;;;-137.44;100.00
26539;BME280;14205;43.200;24.170;2023-06-19T04:18:25;118693.16;;;-137.44;100.00
26539;BME280;14205;43.200;24.170;2023-06-19T04:20:50;118693.16;;;-137.44;100.00
26539;BME280;14205;43.200;24.170;2023-06-19T04:23:15;118693.16;;;-137.44;100.00
26539;BME280;14205;43.200;24.170;2023-06-19T04:25:41;115296.22;;;-137.44;100.00
26539;BME280;14205;43.200;24.170;2023-06-19T04:28:06;113206.19;;;-137.44;100.00
26539;BME280;14205;43.200;24.170;2023-06-19T04:30:32;115557.56;;;-137.44;100.00
26539;BME280;14205;43.200;24.170;2023-06-19T04:32:58;108508.19;;;-137.44;100.00
26539;BME280;14205;43.200;24.170;2023-06-19T04:35:24;112683.88;;;-137.44;100.00
26539;BME280;14205;43.200;24.170;2023-06-19T04:37:49;116439.75;;;-137.44;100.00
26539;BME280;14205;43.200;24.170;2023-06-19T04:40:15;118693.16;;;-137.44;100.00
26539;BME280;14205;43.200;24.170;2023-06-19T04:42:41;118693.16;;;-137.44;100.00
26539;BME280;14205;43.200;24.170;2023-06-19T04:45:07;118693.16;;;-137.44;100.00
26539;BME280;14205;43.200;24.170;2023-06-19T04:47:33;118693.16;;;-137.44;100.00
26539;BME280;14205;43.200;24.170;2023-06-19T04:49:59;118693.16;;;-137.44;100.00
26539;BME280;14205;43.200;24.170;2023-06-19T04:52:25;118693.16;;;-137.44;100.00
26539;BME280;14205;43.200;24.170;2023-06-19T04:54:50;118693.16;;;-137.44;100.00
26539;BME280;14205;43.200;24.170;2023-06-19T04:57:16;118693.16;;;-137.44;100.00
26539;BME280;14205;43.200;24.170;2023-06-19T04:59:42;118693.16;;;-137.44;100.00
26539;BME280;14205;43.200;24.170;2023-06-19T05:02:09;118693.16;;;-137.44;100.00
26539;BME280;14205;43.200;24.170;2023-06-19T05:04:35;118693.16;;;-137.44;100.00
26539;BME280;14205;43.200;24.170;2023-06-19T05:07:01;118693.16;;;-137.44;100.00
26539;BME280;14205;43.200;24.170;2023-06-19T05:09:27;118693.16;;;-137.44;100.00
26539;BME280;14205;43.200;24.170;2023-06-19T05:11:52;118693.16;;;-137.44;100.00
26539;BME280;14205;43.200;24.170;2023-06-19T05:14:17;118693.16;;;-137.44;100.00
26539;BME280;14205;43.200;24.170;2023-06-19T05:16:43;118693.16;;;-137.44;100.00
26539;BME280;14205;43.200;24.170;2023-06-19T05:19:08;118693.16;;;-137.44;100.00
26539;BME280;14205;43.200;24.170;2023-06-19T05:21:34;118693.16;;;-137.44;100.00
26539;BME280;14205;43.200;24.170;2023-06-19T05:23:59;118429.53;;;-137.44;100.00
26539;BME280;14205;43.200;24.170;2023-06-19T05:26:25;114246.97;;;-137.44;100.00
26539;BME280;14205;43.200;24.170;2023-06-19T05:28:51;115814.84;;;-137.44;100.00
26539;BME280;14205;43.200;24.170;2023-06-19T05:31:17;111896.47;;;-137.44;100.00
26539;BME280;14205;43.200;24.170;2023-06-19T05:33:43;114508.25;;;-137.44;100.00
26539;BME280;14205;43.200;24.170;2023-06-19T05:36:09;103812.38;;;-137.44;100.00
26539;BME280;14205;43.200;24.170;2023-06-19T05:38:35;94188.09;;;-137.44;100.00
26539;BME280;14205;43.200;24.170;2023-06-19T05:41:01;87959.56;;;-137.44;100.00
26539;BME280;14205;43.200;24.170;2023-06-19T05:43:27;88218.88;;;-137.44;100.00
26539;BME280;14205;43.200;24.170;2023-06-19T05:45:55;75794.50;;;-137.44;100.00
26539;BME280;14205;43.200;24.170;2023-06-19T05:48:21;67536.50;;;-137.44;100.00
26539;BME280;14205;43.200;24.170;2023-06-19T05:50:46;73469.91;;;-137.44;100.00
26539;BME280;14205;43.200;24.170;2023-06-19T05:53:12;71921.06;;;-137.44;100.00
26539;BME280;14205;43.200;24.170;2023-06-19T05:55:37;63414.97;;;-137.44;100.00
26539;BME280;14205;43.200;24.170;2023-06-19T05:58:03;68309.84;;;-137.44;100.00
26539;BME280;14205;43.200;24.170;2023-06-19T06:00:29;58816.34;;;-137.44;100.00
26539;BME280;14205;43.200;24.170;2023-06-19T06:02:56;66505.66;;;-137.44;100.00
26539;BME280;14205;43.200;24.170;2023-06-19T06:05:24;56752.19;;;-137.44;100.00
26539;BME280;14205;43.200;24.170;2023-06-19T06:07:50;58844.44;;;-137.44;100.00
26539;BME280;14205;43.200;24.170;2023-06-19T06:10:15;68567.66;;;-137.44;100.00
26539;BME280;14205;43.200;24.170;2023-06-19T06:12:42;62128.00;;;-137.44;100.00
26539;BME280;14205;43.200;24.170;2023-06-19T06:15:07;57583.31;;;-137.44;100.00
26539;BME280;14205;43.200;24.170;2023-06-19T06:17:33;58908.72;;;-137.44;100.00
26539;BME280;14205;43.200;24.170;2023-06-19T06:19:58;56944.91;;;-137.44;100.00
26539;BME280;14205;43.200;24.170;2023-06-19T06:22:24;51573.28;;;-137.44;100.00
26539;BME280;14205;43.200;24.170;2023-06-19T06:24:50;46484.31;;;-137.44;100.00
26539;BME280;14205;43.200;24.170;2023-06-19T06:27:15;50819.75;;;-137.44;100.00
26539;BME280;14205;43.200;24.170;2023-06-19T06:29:40;51364.84;;;-137.44;100.00
26539;BME280;14205;43.200;24.170;2023-06-19T06:32:07;53892.97;;;-137.44;100.00
26539;BME280;14205;43.200;24.170;2023-06-19T06:34:35;49094.94;;;-137.44;100.00
26539;BME280;14205;43.200;24.170;2023-06-19T06:37:01;53461.78;;;-137.44;100.00
26539;BME280;14205;43.200;24.170;2023-06-19T06:39:27;59298.41;;;-137.44;100.00
26539;BME280;14205;43.200;24.170;2023-06-19T06:41:53;53590.13;;;-137.44;100.00
26539;BME280;14205;43.200;24.170;2023-06-19T06:44:18;57595.38;;;-137.44;100.00
26539;BME280;14205;43.200;24.170;2023-06-19T06:46:44;58055.19;;;-137.44;100.00
26539;BME280;14205;43.200;24.170;2023-06-19T06:49:09;50873.88;;;-137.44;100.00
26539;BME280;14205;43.200;24.170;2023-06-19T06:51:34;62128.00;;;-137.44;100.00
26539;BME280;14205;43.200;24.170;2023-06-19T06:54:00;62642.72;;;-137.44;100.00
26539;BME280;14205;43.200;24.170;2023-06-19T06:56:25;52551.47;;;-137.44;100.00
26539;BME280;14205;43.200;24.170;2023-06-19T06:58:51;50601.34;;;-137.44;100.00
26539;BME280;14205;43.200;24.170;2023-06-19T07:01:17;50733.59;;;-137.44;100.00
26539;BME280;14205;43.200;24.170;2023-06-19T07:03:42;53140.94;;;-137.44;100.00
26539;BME280;14205;43.200;24.170;2023-06-19T07:06:07;52479.31;;;-137.44;100.00
26539;BME280;14205;43.200;24.170;2023-06-19T07:08:33;54899.94;;;-137.44;100.00
26539;BME280;14205;43.200;24.170;2023-06-19T07:10:58;62900.13;;;-137.44;100.00
26539;BME280;14205;43.200;24.170;2023-06-19T07:13:25;80448.38;;;-137.44;100.00
26539;BME280;14205;43.200;24.170;2023-06-19T07:15:50;83036.59;;;-137.44;100.00
26539;BME280;14205;43.200;24.170;2023-06-19T07:18:16;69341.22;;;-137.44;100.00
26539;BME280;14205;43.200;24.170;2023-06-19T07:20:41;67794.25;;;-137.44;100.00
26539;BME280;14205;43.200;24.170;2023-06-19T07:23:06;50425.03;;;-137.44;100.00
26539;BME280;14205;43.200;24.170;2023-06-19T07:25:32;56408.97;;;-137.44;100.00
26539;BME280;14205;43.200;24.170;2023-06-19T07:27:59;48173.78;;;-137.44;100.00
26539;BME280;14205;43.200;24.170;2023-06-19T07:30:26;44707.69;;;-137.44;100.00
26539;BME280;14205;43.200;24.170;2023-06-19T07:32:51;44413.69;;;-137.44;100.00
26539;BME280;14205;43.200;24.170;2023-06-19T07:35:17;44363.69;;;-137.44;100.00
26539;BME280;14205;43.200;24.170;2023-06-19T07:37:42;44437.69;;;-137.44;96.93
26539;BME280;14205;43.200;24.170;2023-06-19T07:40:08;44319.69;;;-137.44;98.94
26539;BME280;14205;43.200;24.170;2023-06-19T07:42:34;44483.69;;;-137.44;94.75
26539;BME280;14205;43.200;24.170;2023-06-19T07:44:59;44341.69;;;-137.44;98.45
26539;BME280;14205;43.200;24.170;2023-06-19T07:47:26;44369.69;;;-137.44;97.54
26539;BME280;14205;43.200;24.170;2023-06-19T07:49:51;44493.69;;;-137.44;92.62
26539;BME280;14205;43.200;24.170;2023-06-19T07:52:17;44369.69;;;-137.44;95.74
26539;BME280;14205;43.200;24.170;2023-06-19T07:54:54;44435.69;;;-137.44;94.00
26539;BME280;14205;43.200;24.170;2023-06-19T07:57:20;44625.69;;;-137.44;89.67
26539;BME280;14205;43.200;24.170;2023-06-19T07:59:47;44381.69;;;-137.44;94.73
26539;BME280;14205;43.200;24.170;2023-06-19T08:02:12;44397.69;;;-137.44;94.16
26539;BME280;14205;43.200;24.170;2023-06-19T08:04:38;44493.69;;;-137.44;91.40
26539;BME280;14205;43.200;24.170;2023-06-19T08:07:03;44941.72;;;-137.44;82.67
26539;BME280;14205;43.200;24.170;2023-06-19T08:09:29;44453.69;;;-137.44;91.51
26539;BME280;14205;43.200;24.170;2023-06-19T08:11:54;44853.72;;;-137.44;85.02
26539;BME280;14205;43.200;24.170;2023-06-19T08:14:19;44535.69;;;-137.44;91.02
26539;BME280;14205;43.200;24.170;2023-06-19T08:16:45;45045.75;;;-137.44;81.24
26539;BME280;14205;43.200;24.170;2023-06-19T08:19:10;44629.69;;;-137.44;88.32
26539;BME280;14205;43.200;24.170;2023-06-19T08:21:36;44793.72;;;-137.44;86.02
26539;BME280;14205;43.200;24.170;2023-06-19T08:24:01;44733.69;;;-137.44;86.85
26539;BME280;14205;43.200;24.170;2023-06-19T08:26:27;44589.69;;;-137.44;89.51
26539;BME280;14205;43.200;24.170;2023-06-19T08:28:53;45237.78;;;-137.44;77.85
26539;BME280;14205;43.200;24.170;2023-06-19T08:31:19;45203.78;;;-137.44;79.09
26539;BME280;14205;43.200;24.170;2023-06-19T08:33:46;45049.75;;;-137.44;83.70
26539;BME280;14205;43.200;24.170;2023-06-19T08:36:13;44853.72;;;-137.44;84.01
26539;BME280;14205;43.200;24.170;2023-06-19T08:38:39;45093.75;;;-137.44;78.44
26539;BME280;14205;43.200;24.170;2023-06-19T08:41:04;44961.72;;;-137.44;80.54
26539;BME280;14205;43.200;24.170;2023-06-19T08:43:30;44801.72;;;-137.44;84.44
26539;BME280;14205;43.200;24.170;2023-06-19T08:46:11;45041.75;;;-137.44;81.05
26539;BME280;14205;43.200;24.170;2023-06-19T08:48:38;44825.72;;;-137.44;83.68
26539;BME280;14205;43.200;24.170;2023-06-19T08:51:04;45053.75;;;-137.44;82.20
26539;BME280;14205;43.200;24.170;2023-06-19T08:53:34;45043.75;;;-137.44;79.04
26539;BME280;14205;43.200;24.170;2023-06-19T08:56:02;45181.78;;;-137.44;76.90
26539;BME280;14205;43.200;24.170;2023-06-19T08:58:28;45299.81;;;-137.44;74.88
26539;BME280;14205;43.200;24.170;2023-06-19T09:00:53;45525.88;;;-137.44;71.87
26539;BME280;14205;43.200;24.170;2023-06-19T09:03:20;45269.78;;;-137.44;76.16
26539;BME280;14205;43.200;24.170;2023-06-19T09:05:49;45309.81;;;-137.44;75.37
26539;BME280;14205;43.200;24.170;2023-06-19T09:08:18;45301.81;;;-137.44;74.58
26539;BME280;14205;43.200;24.170;2023-06-19T09:11:04;45107.75;;;-137.44;78.58
26539;BME280;14205;43.200;24.170;2023-06-19T09:13:31;45099.75;;;-137.44;80.04
26539;BME280;14205;43.200;24.170;2023-06-19T09:16:04;45085.75;;;-137.44;81.30
26539;BME280;14205;43.200;24.170;2023-06-19T09:18:32;44917.72;;;-137.44;82.75
26539;BME280;14205;43.200;24.170;2023-06-19T09:21:06;45125.75;;;-137.44;79.37
26539;BME280;14205;43.200;24.170;2023-06-19T09:23:32;45043.75;;;-137.44;80.37
26539;BME280;14205;43.200;24.170;2023-06-19T09:25:57;45089.75;;;-137.44;78.60
26539;BME280;14205;43.200;24.170;2023-06-19T09:28:25;45161.78;;;-137.44;77.77
26539;BME280;14205;43.200;24.170;2023-06-19T09:30:59;45159.78;;;-137.44;76.59
26539;BME280;14205;43.200;24.170;2023-06-19T09:33:35;45391.81;;;-137.44;72.83
26539;BME280;14205;43.200;24.170;2023-06-19T09:36:02;45265.78;;;-137.44;74.80
26539;BME280;14205;43.200;24.170;2023-06-19T09:38:33;45121.75;;;-137.44;77.34
26539;BME280;14205;43.200;24.170;2023-06-19T09:41:01;45105.75;;;-137.44;78.67
26539;BME280;14205;43.200;24.170;2023-06-19T09:43:35;45297.81;;;-137.44;75.39
26539;BME280;14205;43.200;24.170;2023-06-19T09:46:03;45587.88;;;-137.44;71.07
26539;BME280;14205;43.200;24.170;2023-06-19T09:48:30;45423.84;;;-137.44;72.60
26539;BME280;14205;43.200;24.170;2023-06-19T09:51:18;45663.91;;;-137.44;71.48
26539;BME280;14205;43.200;24.170;2023-06-19T09:53:48;45459.84;;;-137.44;73.25
26539;BME280;14205;43.200;24.170;2023-06-19T09:56:15;45117.75;;;-137.44;75.71
26539;BME280;14205;43.200;24.170;2023-06-19T09:58:44;45385.81;;;-137.44;71.81
26539;BME280;14205;43.200;24.170;2023-06-19T10:01:11;45443.84;;;-137.44;70.46
26539;BME280;14205;43.200;24.170;2023-06-19T10:03:37;45457.84;;;-137.44;70.80
26539;BME280;14205;43.200;24.170;2023-06-19T10:06:04;45465.84;;;-137.44;71.45
26539;BME280;14205;43.200;24.170;2023-06-19T10:08:32;45171.78;;;-137.44;75.04
26539;BME280;14205;43.200;24.170;2023-06-19T10:10:57;45365.81;;;-137.44;73.82
26539;BME280;14205;43.200;24.170;2023-06-19T10:13:31;45529.88;;;-137.44;70.67
26539;BME280;14205;43.200;24.170;2023-06-19T10:15:57;45677.91;;;-137.44;68.48
26539;BME280;14205;43.200;24.170;2023-06-19T10:18:23;45717.94;;;-137.44;67.96
26539;BME280;14205;43.200;24.170;2023-06-19T10:20:50;45637.91;;;-137.44;68.65
26539;BME280;14205;43.200;24.170;2023-06-19T10:23:23;45878.00;;;-137.44;66.15
26539;BME280;14205;43.200;24.170;2023-06-19T10:28:32;45627.91;;;-137.44;69.10
26539;BME280;14205;43.200;24.170;2023-06-19T10:31:01;45765.97;;;-137.44;68.21
26539;BME280;14205;43.200;24.170;2023-06-19T10:33:31;45705.94;;;-137.44;66.28
26539;BME280;14205;43.200;24.170;2023-06-19T10:36:00;45673.91;;;-137.44;67.10
26539;BME280;14205;43.200;24.170;2023-06-19T10:38:27;45815.97;;;-137.44;65.37
26539;BME280;14205;43.200;24.170;2023-06-19T10:40:52;45842.00;;;-137.44;64.37
26539;BME280;14205;43.200;24.170;2023-06-19T10:43:22;45910.03;;;-137.44;66.57
26539;BME280;14205;43.200;24.170;2023-06-19T10:45:55;45663.91;;;-137.44;67.88
26539;BME280;14205;43.200;24.170;2023-06-19T10:48:22;46034.06;;;-137.44;59.76
26539;BME280;14205;43.200;24.170;2023-06-19T10:50:48;46310.22;;;-137.44;58.02
26539;BME280;14205;43.200;24.170;2023-06-19T10:53:29;46388.25;;;-137.44;58.79
26539;BME280;14205;43.200;24.170;2023-06-19T10:55:59;46234.19;;;-137.44;62.68
26539;BME280;14205;43.200;24.170;2023-06-19T10:58:25;45940.03;;;-137.44;67.65
26539;BME280;14205;43.200;24.170;2023-06-19T11:00:50;46086.09;;;-137.44;63.59
26539;BME280;14205;43.200;24.170;2023-06-19T11:03:16;46286.19;;;-137.44;61.23
26539;BME280;14205;43.200;24.170;2023-06-19T11:05:44;45589.88;;;-137.44;66.34
26539;BME280;14205;43.200;24.170;2023-06-19T11:08:10;45721.94;;;-137.44;62.74
26539;BME280;14205;43.200;24.170;2023-06-19T11:10:35;46002.06;;;-137.44;59.50
26539;BME280;14205;43.200;24.170;2023-06-19T11:13:01;46570.38;;;-137.44;52.64
26539;BME280;14205;43.200;24.170;2023-06-19T11:15:33;46342.22;;;-137.44;54.66
26539;BME280;14205;43.200;24.170;2023-06-19T11:18:01;46458.31;;;-137.44;53.16
26539;BME280;14205;43.200;24.170;2023-06-19T11:20:27;46874.59;;;-137.44;48.02
26539;BME280;14205;43.200;24.170;2023-06-19T11:23:00;46622.41;;;-137.44;50.83
26539;BME280;14205;43.200;24.170;2023-06-19T11:25:39;46740.47;;;-137.44;49.59
26539;BME280;14205;43.200;24.170;2023-06-19T11:28:11;47803.38;;;-137.44;42.09
26539;BME280;14205;43.200;24.170;2023-06-19T11:30:38;47383.00;;;-137.44;44.81
26539;BME280;14205;43.200;24.170;2023-06-19T11:33:20;47617.19;;;-137.44;41.20
26539;BME280;14205;43.200;24.170;2023-06-19T11:35:48;48037.63;;;-137.44;40.95
26539;BME280;14205;43.200;24.170;2023-06-19T11:38:22;47751.34;;;-137.44;44.86
26539;BME280;14205;43.200;24.170;2023-06-19T11:40:48;47495.09;;;-137.44;45.11
26539;BME280;14205;43.200;24.170;2023-06-19T11:43:24;47731.31;;;-137.44;42.06
26539;BME280;14205;43.200;24.170;2023-06-19T11:45:50;47024.69;;;-137.44;48.33
26539;BME280;14205;43.200;24.170;2023-06-19T11:48:26;47266.88;;;-137.44;44.47
26539;BME280;14205;43.200;24.170;2023-06-19T11:50:52;47549.13;;;-137.44;42.11
26539;BME280;14205;43.200;24.170;2023-06-19T11:53:19;47861.44;;;-137.44;40.28
26539;BME280;14205;43.200;24.170;2023-06-19T11:55:45;48083.69;;;-137.44;38.31
26539;BME280;14205;43.200;24.170;2023-06-19T11:58:10;48075.66;;;-137.44;39.49
26539;BME280;14205;43.200;24.170;2023-06-19T12:00:36;47499.09;;;-137.44;41.32
26539;BME280;14205;43.200;24.170;2023-06-19T12:03:01;47749.34;;;-137.44;41.74
26539;BME280;14205;43.200;24.170;2023-06-19T12:05:27;47693.28;;;-137.44;41.02
26539;BME280;14205;43.200;24.170;2023-06-19T12:07:52;47887.47;;;-137.44;37.80
26539;BME280;14205;43.200;24.170;2023-06-19T12:10:18;47859.44;;;-137.44;40.97
26539;BME280;14205;43.200;24.170;2023-06-19T12:12:43;48051.66;;;-137.44;37.32
26539;BME280;14205;43.200;24.170;2023-06-19T12:15:09;48692.41;;;-137.44;34.63
26539;BME280;14205;43.200;24.170;2023-06-19T12:17:34;48648.34;;;-137.44;34.33
26539;BME280;14205;43.200;24.170;2023-06-19T12:20:01;48644.34;;;-137.44;32.95
26539;BME280;14205;43.200;24.170;2023-06-19T12:22:27;48896.66;;;-137.44;31.83
26539;BME280;14205;43.200;24.170;2023-06-19T12:24:53;48912.69;;;-137.44;32.19